Aviation Digital Data Service (ADDS)

Output produced by METARs form (2130 UTC 20 June 2019)
found at http://www.aviationweather.gov/metar/data/
 
KLNS 202053Z 29011KT 10SM SCT080 28/21 A2952 RMK AO2 PK WND 28028/2017 RAE1954 SLP991 P0000 60000 T02780211 56009
KLNS 202039Z 2021/2118 28008G16KT P6SM VCSH SCT040 BKN090 
     FM210500 31008KT 6SM -SHRA BR OVC025 
     FM211200 33015KT P6SM OVC025